createdAt,value
2022-09-21T00:03:02.233Z,86.60
2022-09-21T00:08:06.856Z,86.91
2022-09-21T00:13:08.900Z,87.11
2022-09-21T00:18:14.677Z,87.20
2022-09-21T00:23:16.705Z,87.20
2022-09-21T00:28:18.439Z,87.17
2022-09-21T00:33:20.169Z,87.31
2022-09-21T00:38:22.200Z,87.61
2022-09-21T00:43:23.979Z,87.99
2022-09-21T00:48:25.760Z,88.19
2022-09-21T00:53:28.457Z,88.44
2022-09-21T00:58:34.041Z,88.63
2022-09-21T01:03:35.837Z,88.87
2022-09-21T01:08:38.426Z,88.99
2022-09-21T01:14:13.962Z,89.10
2022-09-21T01:19:50.127Z,89.40
2022-09-21T01:25:10.207Z,89.51
2022-09-21T01:30:18.950Z,89.42
2022-09-21T01:35:33.139Z,89.13
2022-09-21T01:40:39.862Z,88.90
2022-09-21T01:45:49.113Z,88.92
2022-09-21T01:50:55.624Z,88.99
2022-09-21T01:56:03.189Z,88.98
2022-09-21T02:01:14.132Z,88.90
2022-09-21T02:06:18.780Z,88.73
2022-09-21T02:11:20.732Z,88.63
2022-09-21T02:16:44.465Z,88.53
2022-09-21T02:22:06.059Z,88.38
2022-09-21T02:27:35.398Z,88.29
2022-09-21T02:32:54.521Z,88.23
2022-09-21T02:38:36.906Z,88.11
2022-09-21T02:43:47.417Z,88.12
2022-09-21T02:48:53.892Z,88.14
2022-09-21T02:53:57.081Z,88.09
2022-09-21T02:59:04.625Z,88.04
2022-09-21T03:04:06.864Z,87.96
2022-09-21T03:09:08.993Z,87.90
2022-09-21T03:14:10.864Z,87.90
2022-09-21T03:19:12.783Z,87.88
2022-09-21T03:24:34.742Z,87.86
2022-09-21T03:29:43.587Z,87.89
2022-09-21T03:34:51.912Z,87.90
2022-09-21T03:40:08.048Z,87.87
2022-09-21T03:45:11.815Z,87.86
2022-09-21T03:50:14.839Z,87.81
2022-09-21T03:55:17.340Z,87.73
2022-09-21T04:00:20.390Z,87.58
2022-09-21T04:05:29.289Z,87.61
2022-09-21T04:10:33.408Z,87.72
2022-09-21T04:15:36.876Z,87.80
2022-09-21T04:20:38.816Z,87.89
2022-09-21T04:25:46.588Z,87.93
2022-09-21T04:30:48.411Z,87.98
2022-09-21T04:35:57.005Z,88.05
2022-09-21T04:40:59.107Z,88.06
2022-09-21T04:46:09.632Z,88.08
2022-09-21T04:51:12.782Z,88.17
2022-09-21T04:56:16.619Z,88.27
2022-09-21T05:01:18.591Z,88.37
2022-09-21T05:06:20.786Z,88.51
2022-09-21T05:11:22.943Z,88.64
2022-09-21T05:16:24.701Z,88.83
2022-09-21T05:21:26.777Z,89.01
2022-09-21T05:26:28.596Z,89.11
2022-09-21T05:31:56.076Z,89.10
2022-09-21T05:37:10.260Z,89.09
2022-09-21T05:42:19.988Z,89.18
2022-09-21T05:47:39.700Z,89.29
2022-09-21T05:53:20.386Z,89.37
2022-09-21T05:58:48.308Z,89.36
2022-09-21T06:03:50.353Z,89.32
2022-09-21T06:08:52.288Z,89.31
2022-09-21T06:13:54.681Z,89.22
2022-09-21T06:18:56.691Z,89.03
2022-09-21T06:24:05.917Z,88.78
2022-09-21T06:29:23.453Z,88.57
2022-09-21T06:34:25.276Z,88.40
2022-09-21T06:39:27.282Z,88.22
2022-09-21T06:44:30.162Z,88.15
2022-09-21T06:49:31.953Z,88.20
2022-09-21T06:54:33.724Z,88.35
2022-09-21T06:59:37.736Z,88.37
2022-09-21T07:04:39.956Z,88.54
2022-09-21T07:15:07.181Z,87.74
2022-09-21T07:20:09.173Z,87.01
2022-09-21T07:25:11.793Z,86.54
2022-09-21T07:30:13.672Z,86.47
2022-09-21T07:35:15.390Z,86.40
2022-09-21T07:40:36.911Z,86.60
2022-09-21T07:45:57.430Z,86.85
2022-09-21T07:51:06.745Z,86.76
2022-09-21T07:56:11.686Z,86.57
2022-09-21T08:01:27.568Z,86.74
2022-09-21T08:06:32.951Z,86.72
2022-09-21T08:11:54.889Z,86.29
2022-09-21T08:16:56.622Z,85.90
2022-09-21T08:21:58.979Z,85.60
2022-09-21T08:27:01.675Z,85.34
2022-09-21T08:32:04.210Z,85.56
2022-09-21T08:37:06.734Z,85.73
2022-09-21T08:42:08.512Z,84.63
2022-09-21T08:47:35.662Z,84.03
2022-09-21T08:52:37.748Z,83.02
2022-09-21T08:57:39.663Z,82.45
2022-09-21T09:02:56.587Z,81.53
2022-09-21T09:08:26.424Z,81.49
2022-09-21T09:13:57.044Z,81.49
2022-09-21T09:19:15.844Z,81.84
2022-09-21T09:24:33.705Z,81.69
2022-09-21T09:29:53.022Z,81.28
2022-09-21T09:35:25.903Z,80.11
2022-09-21T09:40:47.366Z,79.77
2022-09-21T09:46:21.953Z,78.50
2022-09-21T09:51:40.749Z,79.33
2022-09-21T09:56:43.270Z,79.08
2022-09-21T10:01:47.330Z,77.76
2022-09-21T10:06:49.471Z,78.17
2022-09-21T10:11:53.149Z,78.41
2022-09-21T10:16:56.341Z,76.99
2022-09-21T10:22:00.974Z,75.99
2022-09-21T10:27:40.991Z,75.75
2022-09-21T10:32:56.961Z,76.17
2022-09-21T10:38:27.438Z,76.05
2022-09-21T10:43:43.693Z,76.44
2022-09-21T10:48:46.651Z,75.99
2022-09-21T10:53:53.896Z,76.35
2022-09-21T10:59:22.366Z,76.40
2022-09-21T11:04:40.979Z,75.84
2022-09-21T11:09:58.742Z,74.65
2022-09-21T11:15:20.570Z,73.24
2022-09-21T11:20:34.927Z,71.51
2022-09-21T11:26:01.149Z,70.78
2022-09-21T11:31:37.159Z,68.96
2022-09-21T11:37:10.974Z,68.19
2022-09-21T11:42:36.093Z,67.21
2022-09-21T11:47:49.728Z,65.40
2022-09-21T11:53:11.230Z,62.69
2022-09-21T11:58:31.573Z,62.62
2022-09-21T12:04:11.139Z,63.65
2022-09-21T12:09:34.363Z,65.44
2022-09-21T12:14:50.298Z,63.75
2022-09-21T12:20:20.975Z,61.41
2022-09-21T12:25:29.685Z,60.35
2022-09-21T12:30:33.679Z,59.43
2022-09-21T12:35:44.434Z,61.14
2022-09-21T12:40:54.474Z,61.04
2022-09-21T12:46:29.586Z,61.44
2022-09-21T12:51:36.974Z,61.31
2022-09-21T12:56:51.595Z,61.18
2022-09-21T13:02:12.433Z,60.84
2022-09-21T13:07:34.011Z,61.07
2022-09-21T13:12:57.441Z,61.74
2022-09-21T13:18:05.897Z,61.29
2022-09-21T13:23:17.405Z,61.38
2022-09-21T13:28:21.639Z,60.90
2022-09-21T13:33:23.927Z,60.96
2022-09-21T13:38:41.199Z,62.95
2022-09-21T13:44:05.878Z,64.34
2022-09-21T13:49:11.414Z,63.18
2022-09-21T13:54:14.445Z,62.86
2022-09-21T13:59:24.558Z,61.41
2022-09-21T14:04:37.215Z,61.69
2022-09-21T14:09:57.831Z,61.49
2022-09-21T14:15:22.772Z,61.05
2022-09-21T14:20:37.154Z,61.10
2022-09-21T14:25:49.015Z,66.90
2022-09-21T14:30:58.264Z,70.97
2022-09-21T14:36:05.625Z,74.47
2022-09-21T14:41:08.092Z,77.61
2022-09-21T14:46:12.751Z,79.36
2022-09-21T14:51:25.225Z,80.54
2022-09-21T14:56:56.771Z,81.44
2022-09-21T15:02:29.193Z,82.00
2022-09-21T15:07:54.809Z,82.09
2022-09-21T15:13:19.189Z,81.66
2022-09-21T15:18:22.519Z,81.45
2022-09-21T15:23:25.277Z,81.33
2022-09-21T15:28:57.936Z,81.48
2022-09-21T15:33:57.311Z,81.78
2022-09-21T15:39:01.651Z,81.77
2022-09-21T15:44:21.529Z,81.58
2022-09-21T15:49:23.968Z,81.68
2022-09-21T15:54:35.819Z,81.55
2022-09-21T15:59:55.949Z,81.38
2022-09-21T16:04:57.949Z,81.68
2022-09-21T16:10:01.015Z,82.07
2022-09-21T16:15:25.353Z,82.21
2022-09-21T16:20:42.935Z,82.23
2022-09-21T16:25:52.717Z,82.15
2022-09-21T16:30:56.693Z,82.02
2022-09-21T16:35:59.062Z,82.05
2022-09-21T16:41:02.676Z,81.85
2022-09-21T16:46:06.093Z,81.97
2022-09-21T16:51:17.911Z,82.18
2022-09-21T16:56:20.295Z,82.49
2022-09-21T17:01:22.190Z,82.99
2022-09-21T17:06:24.146Z,83.47
2022-09-21T17:11:26.122Z,83.60
2022-09-21T17:16:28.008Z,83.62
2022-09-21T17:21:31.399Z,83.56
2022-09-21T17:26:34.728Z,83.53
2022-09-21T17:31:38.847Z,83.56
2022-09-21T17:36:40.970Z,83.72
2022-09-21T17:41:57.889Z,83.87
2022-09-21T17:47:17.881Z,83.92
2022-09-21T17:52:41.260Z,83.90
2022-09-21T17:58:20.641Z,83.89
2022-09-21T18:03:26.365Z,84.06
2022-09-21T18:08:36.120Z,84.35
2022-09-21T18:13:54.199Z,84.47
2022-09-21T18:19:26.083Z,84.58
2022-09-21T18:24:33.900Z,84.57
2022-09-21T18:29:39.743Z,84.50
2022-09-21T18:34:57.936Z,84.07
2022-09-21T18:40:36.947Z,84.51
2022-09-21T18:45:55.609Z,84.29
2022-09-21T18:51:04.886Z,84.12
2022-09-21T18:56:08.521Z,83.92
2022-09-21T19:01:13.086Z,83.96
2022-09-21T19:06:52.927Z,84.37
2022-09-21T19:12:05.326Z,84.54
2022-09-21T19:17:25.964Z,84.69
2022-09-21T19:22:53.236Z,84.90
2022-09-21T19:28:01.575Z,85.41
2022-09-21T19:33:48.344Z,85.55
2022-09-21T19:38:48.112Z,85.48
2022-09-21T19:44:12.958Z,85.64
2022-09-21T19:49:20.070Z,85.75
2022-09-21T19:54:43.422Z,85.74
2022-09-21T19:59:46.013Z,85.90
2022-09-21T20:05:20.276Z,86.44
2022-09-21T20:10:28.066Z,87.05
2022-09-21T20:15:48.251Z,87.31
2022-09-21T20:20:50.253Z,87.34
2022-09-21T20:26:03.511Z,87.30
2022-09-21T20:31:05.309Z,87.27
2022-09-21T20:36:09.327Z,87.28
2022-09-21T20:41:16.624Z,87.47
2022-09-21T20:46:19.106Z,87.61
2022-09-21T20:51:21.378Z,87.66
2022-09-21T20:56:24.373Z,87.71
2022-09-21T21:01:27.007Z,87.69
2022-09-21T21:06:31.338Z,87.64
2022-09-21T21:11:33.102Z,87.47
2022-09-21T21:16:34.953Z,87.40
2022-09-21T21:21:36.906Z,87.38
2022-09-21T21:27:00.625Z,87.38
2022-09-21T21:32:14.830Z,87.48
2022-09-21T21:37:18.619Z,87.61
2022-09-21T21:42:21.088Z,87.64
2022-09-21T21:47:40.526Z,87.57
2022-09-21T21:52:45.219Z,87.51
2022-09-21T21:57:47.079Z,87.25
2022-09-21T22:02:48.852Z,87.11
2022-09-21T22:07:50.756Z,86.79
2022-09-21T22:12:52.754Z,86.45
2022-09-21T22:17:54.421Z,86.09
2022-09-21T22:22:56.164Z,85.99
2022-09-21T22:27:58.493Z,85.96
2022-09-21T22:33:00.476Z,85.98
2022-09-21T22:38:02.275Z,86.04
2022-09-21T22:43:04.029Z,86.13
2022-09-21T22:48:05.818Z,86.55
2022-09-21T22:53:07.630Z,86.97
2022-09-21T22:58:10.059Z,87.02
2022-09-21T23:03:25.948Z,87.13
2022-09-21T23:08:28.872Z,86.90
2022-09-21T23:13:30.601Z,86.81
2022-09-21T23:18:37.166Z,86.72
2022-09-21T23:23:39.652Z,86.94
2022-09-21T23:28:53.851Z,87.62
2022-09-21T23:34:02.814Z,87.94
2022-09-21T23:39:07.264Z,88.09
2022-09-21T23:44:09.519Z,88.08
2022-09-21T23:54:15.158Z,88.18
2022-09-21T23:59:16.857Z,88.31
